sensor_id;sensor_type;location;lat;lon;timestamp;P1;durP1;ratioP1;P2;durP2;ratioP2
31584;SDS011;18191;51.288;12.390;2023-06-22T00:00:38;23.92;;;9.02;;
31584;SDS011;18191;51.288;12.390;2023-06-22T00:05:31;15.77;;;7.95;;
31584;SDS011;18191;51.288;12.390;2023-06-22T00:10:22;24.48;;;8.52;;
31584;SDS011;18191;51.288;12.390;2023-06-22T00:15:12;14.55;;;8.45;;
31584;SDS011;18191;51.288;12.390;2023-06-22T00:20:02;18.77;;;8.48;;
31584;SDS011;18191;51.288;12.390;2023-06-22T00:24:56;18.83;;;8.32;;
31584;SDS011;18191;51.288;12.390;2023-06-22T00:29:46;16.65;;;8.82;;
31584;SDS011;18191;51.288;12.390;2023-06-22T00:34:36;15.38;;;8.43;;
31584;SDS011;18191;51.288;12.390;2023-06-22T00:39:27;20.35;;;7.53;;
31584;SDS011;18191;51.288;12.390;2023-06-22T00:44:17;17.40;;;7.45;;
31584;SDS011;18191;51.288;12.390;2023-06-22T00:49:07;12.57;;;7.57;;
31584;SDS011;18191;51.288;12.390;2023-06-22T00:53:58;15.07;;;8.20;;
31584;SDS011;18191;51.288;12.390;2023-06-22T00:58:48;15.68;;;8.10;;
31584;SDS011;18191;51.288;12.390;2023-06-22T01:03:42;14.27;;;9.00;;
31584;SDS011;18191;51.288;12.390;2023-06-22T01:13:50;14.90;;;7.60;;
31584;SDS011;18191;51.288;12.390;2023-06-22T01:29:01;12.40;;;6.85;;
31584;SDS011;18191;51.288;12.390;2023-06-22T01:33:55;13.38;;;7.60;;
31584;SDS011;18191;51.288;12.390;2023-06-22T01:38:49;15.32;;;8.98;;
31584;SDS011;18191;51.288;12.390;2023-06-22T01:43:40;11.07;;;7.35;;
31584;SDS011;18191;51.288;12.390;2023-06-22T01:48:31;20.00;;;8.18;;
31584;SDS011;18191;51.288;12.390;2023-06-22T01:53:22;14.77;;;7.63;;
31584;SDS011;18191;51.288;12.390;2023-06-22T01:58:13;12.77;;;8.25;;
31584;SDS011;18191;51.288;12.390;2023-06-22T02:03:05;21.42;;;8.27;;
31584;SDS011;18191;51.288;12.390;2023-06-22T02:08:02;16.48;;;8.20;;
31584;SDS011;18191;51.288;12.390;2023-06-22T02:12:58;13.40;;;7.90;;
31584;SDS011;18191;51.288;12.390;2023-06-22T02:17:50;14.23;;;8.43;;
31584;SDS011;18191;51.288;12.390;2023-06-22T02:22:40;18.02;;;9.50;;
31584;SDS011;18191;51.288;12.390;2023-06-22T02:27:31;15.68;;;8.80;;
31584;SDS011;18191;51.288;12.390;2023-06-22T02:32:21;16.30;;;8.88;;
31584;SDS011;18191;51.288;12.390;2023-06-22T02:37:11;17.38;;;8.18;;
31584;SDS011;18191;51.288;12.390;2023-06-22T02:42:02;15.30;;;8.00;;
31584;SDS011;18191;51.288;12.390;2023-06-22T02:46:53;13.32;;;7.20;;
31584;SDS011;18191;51.288;12.390;2023-06-22T02:51:45;24.58;;;8.98;;
31584;SDS011;18191;51.288;12.390;2023-06-22T02:56:36;16.23;;;7.95;;
31584;SDS011;18191;51.288;12.390;2023-06-22T03:01:27;16.40;;;9.10;;
31584;SDS011;18191;51.288;12.390;2023-06-22T03:06:18;16.25;;;8.75;;
31584;SDS011;18191;51.288;12.390;2023-06-22T03:11:13;21.80;;;9.43;;
31584;SDS011;18191;51.288;12.390;2023-06-22T03:16:03;16.45;;;9.07;;
31584;SDS011;18191;51.288;12.390;2023-06-22T03:20:54;25.88;;;10.50;;
31584;SDS011;18191;51.288;12.390;2023-06-22T03:25:44;25.98;;;11.30;;
31584;SDS011;18191;51.288;12.390;2023-06-22T03:30:34;22.60;;;9.95;;
31584;SDS011;18191;51.288;12.390;2023-06-22T03:35:25;23.48;;;11.07;;
31584;SDS011;18191;51.288;12.390;2023-06-22T03:40:15;14.80;;;9.15;;
31584;SDS011;18191;51.288;12.390;2023-06-22T03:45:05;18.00;;;10.02;;
31584;SDS011;18191;51.288;12.390;2023-06-22T03:49:56;21.67;;;10.10;;
31584;SDS011;18191;51.288;12.390;2023-06-22T03:54:47;20.10;;;11.40;;
31584;SDS011;18191;51.288;12.390;2023-06-22T03:59:37;17.42;;;9.38;;
31584;SDS011;18191;51.288;12.390;2023-06-22T04:04:27;25.15;;;10.60;;
31584;SDS011;18191;51.288;12.390;2023-06-22T04:09:18;23.17;;;11.85;;
31584;SDS011;18191;51.288;12.390;2023-06-22T04:14:08;28.40;;;11.37;;
31584;SDS011;18191;51.288;12.390;2023-06-22T04:18:58;23.08;;;11.45;;
31584;SDS011;18191;51.288;12.390;2023-06-22T04:23:48;20.85;;;10.32;;
31584;SDS011;18191;51.288;12.390;2023-06-22T04:28:39;26.33;;;12.40;;
31584;SDS011;18191;51.288;12.390;2023-06-22T04:33:30;27.25;;;11.10;;
31584;SDS011;18191;51.288;12.390;2023-06-22T04:38:20;26.83;;;12.48;;
31584;SDS011;18191;51.288;12.390;2023-06-22T04:43:11;19.35;;;12.43;;
31584;SDS011;18191;51.288;12.390;2023-06-22T04:48:01;24.45;;;12.75;;
31584;SDS011;18191;51.288;12.390;2023-06-22T04:52:52;24.20;;;13.38;;
31584;SDS011;18191;51.288;12.390;2023-06-22T04:57:42;29.13;;;14.15;;
31584;SDS011;18191;51.288;12.390;2023-06-22T05:02:41;32.42;;;13.10;;
31584;SDS011;18191;51.288;12.390;2023-06-22T05:07:31;30.85;;;13.55;;
31584;SDS011;18191;51.288;12.390;2023-06-22T05:12:21;34.60;;;15.20;;
31584;SDS011;18191;51.288;12.390;2023-06-22T05:17:12;38.10;;;14.48;;
31584;SDS011;18191;51.288;12.390;2023-06-22T05:22:03;28.50;;;12.70;;
31584;SDS011;18191;51.288;12.390;2023-06-22T05:26:54;27.73;;;13.05;;
31584;SDS011;18191;51.288;12.390;2023-06-22T05:31:45;25.00;;;12.90;;
31584;SDS011;18191;51.288;12.390;2023-06-22T05:36:35;25.45;;;12.15;;
31584;SDS011;18191;51.288;12.390;2023-06-22T05:41:25;29.35;;;11.80;;
31584;SDS011;18191;51.288;12.390;2023-06-22T05:46:16;21.27;;;11.77;;
31584;SDS011;18191;51.288;12.390;2023-06-22T05:51:06;31.38;;;11.77;;
31584;SDS011;18191;51.288;12.390;2023-06-22T05:55:57;23.87;;;12.20;;
31584;SDS011;18191;51.288;12.390;2023-06-22T06:00:47;18.38;;;11.13;;
31584;SDS011;18191;51.288;12.390;2023-06-22T06:05:38;19.73;;;11.40;;
31584;SDS011;18191;51.288;12.390;2023-06-22T06:15:19;20.35;;;10.88;;
31584;SDS011;18191;51.288;12.390;2023-06-22T06:20:10;19.77;;;9.93;;
31584;SDS011;18191;51.288;12.390;2023-06-22T06:25:00;30.38;;;9.45;;
31584;SDS011;18191;51.288;12.390;2023-06-22T06:29:51;22.02;;;9.65;;
31584;SDS011;18191;51.288;12.390;2023-06-22T06:34:41;19.00;;;9.65;;
31584;SDS011;18191;51.288;12.390;2023-06-22T06:39:31;23.73;;;9.02;;
31584;SDS011;18191;51.288;12.390;2023-06-22T06:44:21;21.38;;;9.88;;
31584;SDS011;18191;51.288;12.390;2023-06-22T06:49:12;14.30;;;8.52;;
31584;SDS011;18191;51.288;12.390;2023-06-22T06:54:03;20.75;;;9.40;;
31584;SDS011;18191;51.288;12.390;2023-06-22T06:58:53;16.05;;;8.80;;
31584;SDS011;18191;51.288;12.390;2023-06-22T07:03:44;17.67;;;8.50;;
31584;SDS011;18191;51.288;12.390;2023-06-22T07:08:34;18.90;;;9.38;;
31584;SDS011;18191;51.288;12.390;2023-06-22T07:13:26;18.95;;;9.52;;
31584;SDS011;18191;51.288;12.390;2023-06-22T07:18:16;15.50;;;9.07;;
31584;SDS011;18191;51.288;12.390;2023-06-22T07:23:06;14.65;;;8.80;;
31584;SDS011;18191;51.288;12.390;2023-06-22T07:28:01;14.32;;;7.80;;
31584;SDS011;18191;51.288;12.390;2023-06-22T07:32:52;17.10;;;8.13;;
31584;SDS011;18191;51.288;12.390;2023-06-22T07:37:42;18.20;;;9.95;;
31584;SDS011;18191;51.288;12.390;2023-06-22T07:42:32;15.65;;;8.80;;
31584;SDS011;18191;51.288;12.390;2023-06-22T07:47:23;16.60;;;8.55;;
31584;SDS011;18191;51.288;12.390;2023-06-22T07:52:16;21.33;;;9.55;;
31584;SDS011;18191;51.288;12.390;2023-06-22T07:57:06;19.08;;;8.57;;
31584;SDS011;18191;51.288;12.390;2023-06-22T08:01:57;21.05;;;9.07;;
31584;SDS011;18191;51.288;12.390;2023-06-22T08:06:47;14.30;;;8.18;;
31584;SDS011;18191;51.288;12.390;2023-06-22T08:11:39;14.80;;;8.27;;
31584;SDS011;18191;51.288;12.390;2023-06-22T08:16:29;14.68;;;7.70;;
31584;SDS011;18191;51.288;12.390;2023-06-22T08:21:19;21.95;;;8.98;;
31584;SDS011;18191;51.288;12.390;2023-06-22T08:26:10;15.80;;;6.88;;
31584;SDS011;18191;51.288;12.390;2023-06-22T08:31:01;17.15;;;7.35;;
31584;SDS011;18191;51.288;12.390;2023-06-22T08:35:52;36.65;;;8.10;;
31584;SDS011;18191;51.288;12.390;2023-06-22T08:40:42;13.15;;;8.27;;
31584;SDS011;18191;51.288;12.390;2023-06-22T08:45:33;17.67;;;8.02;;
31584;SDS011;18191;51.288;12.390;2023-06-22T08:50:23;12.87;;;7.23;;
31584;SDS011;18191;51.288;12.390;2023-06-22T08:55:13;16.33;;;8.70;;
31584;SDS011;18191;51.288;12.390;2023-06-22T09:00:07;12.57;;;7.93;;
31584;SDS011;18191;51.288;12.390;2023-06-22T09:05:06;20.77;;;8.75;;
31584;SDS011;18191;51.288;12.390;2023-06-22T09:09:57;9.38;;;6.57;;
31584;SDS011;18191;51.288;12.390;2023-06-22T09:14:47;12.10;;;7.00;;
31584;SDS011;18191;51.288;12.390;2023-06-22T09:19:37;10.57;;;6.50;;
31584;SDS011;18191;51.288;12.390;2023-06-22T09:24:27;14.35;;;7.22;;
31584;SDS011;18191;51.288;12.390;2023-06-22T09:29:18;20.27;;;7.40;;
31584;SDS011;18191;51.288;12.390;2023-06-22T09:34:08;11.48;;;6.72;;
31584;SDS011;18191;51.288;12.390;2023-06-22T09:38:58;12.90;;;6.95;;
31584;SDS011;18191;51.288;12.390;2023-06-22T09:43:49;12.43;;;7.57;;
31584;SDS011;18191;51.288;12.390;2023-06-22T09:48:39;10.48;;;6.18;;
31584;SDS011;18191;51.288;12.390;2023-06-22T09:53:29;10.95;;;6.60;;
31584;SDS011;18191;51.288;12.390;2023-06-22T09:58:19;17.52;;;5.95;;
31584;SDS011;18191;51.288;12.390;2023-06-22T10:03:10;8.10;;;5.68;;
31584;SDS011;18191;51.288;12.390;2023-06-22T10:08:00;10.23;;;5.22;;
31584;SDS011;18191;51.288;12.390;2023-06-22T10:12:55;8.88;;;6.15;;
31584;SDS011;18191;51.288;12.390;2023-06-22T10:17:47;8.40;;;5.32;;
31584;SDS011;18191;51.288;12.390;2023-06-22T10:22:40;8.33;;;5.53;;
31584;SDS011;18191;51.288;12.390;2023-06-22T10:27:32;12.50;;;5.80;;
31584;SDS011;18191;51.288;12.390;2023-06-22T10:32:22;8.57;;;5.50;;
31584;SDS011;18191;51.288;12.390;2023-06-22T10:37:12;14.63;;;5.90;;
31584;SDS011;18191;51.288;12.390;2023-06-22T10:42:03;11.43;;;5.85;;
31584;SDS011;18191;51.288;12.390;2023-06-22T10:46:53;18.33;;;5.70;;
31584;SDS011;18191;51.288;12.390;2023-06-22T10:51:43;9.23;;;6.07;;
31584;SDS011;18191;51.288;12.390;2023-06-22T10:56:33;9.30;;;6.20;;
31584;SDS011;18191;51.288;12.390;2023-06-22T11:01:24;10.43;;;5.73;;
31584;SDS011;18191;51.288;12.390;2023-06-22T11:06:14;18.80;;;6.77;;
31584;SDS011;18191;51.288;12.390;2023-06-22T11:11:05;9.70;;;6.32;;
31584;SDS011;18191;51.288;12.390;2023-06-22T11:15:55;14.02;;;6.50;;
31584;SDS011;18191;51.288;12.390;2023-06-22T11:20:45;13.35;;;6.50;;
31584;SDS011;18191;51.288;12.390;2023-06-22T11:25:37;14.52;;;6.50;;
31584;SDS011;18191;51.288;12.390;2023-06-22T11:30:28;16.63;;;7.07;;
31584;SDS011;18191;51.288;12.390;2023-06-22T11:35:18;17.85;;;6.90;;
31584;SDS011;18191;51.288;12.390;2023-06-22T11:40:08;14.60;;;7.07;;
31584;SDS011;18191;51.288;12.390;2023-06-22T11:44:59;10.50;;;7.03;;
31584;SDS011;18191;51.288;12.390;2023-06-22T11:49:50;12.77;;;6.90;;
31584;SDS011;18191;51.288;12.390;2023-06-22T11:54:40;14.23;;;6.70;;
31584;SDS011;18191;51.288;12.390;2023-06-22T11:59:30;9.85;;;6.38;;
31584;SDS011;18191;51.288;12.390;2023-06-22T12:04:21;10.03;;;6.60;;
31584;SDS011;18191;51.288;12.390;2023-06-22T12:09:11;11.30;;;6.55;;
31584;SDS011;18191;51.288;12.390;2023-06-22T12:14:03;11.02;;;6.35;;
31584;SDS011;18191;51.288;12.390;2023-06-22T12:18:54;10.15;;;6.68;;
31584;SDS011;18191;51.288;12.390;2023-06-22T12:23:44;9.97;;;6.23;;
31584;SDS011;18191;51.288;12.390;2023-06-22T12:28:35;9.63;;;6.50;;
31584;SDS011;18191;51.288;12.390;2023-06-22T12:33:25;11.15;;;7.00;;
31584;SDS011;18191;51.288;12.390;2023-06-22T12:38:15;16.02;;;6.78;;
31584;SDS011;18191;51.288;12.390;2023-06-22T12:43:05;14.82;;;7.40;;
31584;SDS011;18191;51.288;12.390;2023-06-22T12:47:57;15.55;;;7.30;;
31584;SDS011;18191;51.288;12.390;2023-06-22T12:52:47;10.77;;;6.93;;
31584;SDS011;18191;51.288;12.390;2023-06-22T12:57:38;11.68;;;6.97;;
31584;SDS011;18191;51.288;12.390;2023-06-22T13:02:28;12.82;;;7.68;;
31584;SDS011;18191;51.288;12.390;2023-06-22T13:07:18;10.05;;;6.88;;
31584;SDS011;18191;51.288;12.390;2023-06-22T13:12:08;9.13;;;6.65;;
31584;SDS011;18191;51.288;12.390;2023-06-22T13:16:59;11.48;;;7.47;;
31584;SDS011;18191;51.288;12.390;2023-06-22T13:21:49;12.10;;;7.30;;
31584;SDS011;18191;51.288;12.390;2023-06-22T13:26:40;10.02;;;7.20;;
31584;SDS011;18191;51.288;12.390;2023-06-22T13:31:30;13.70;;;7.75;;
31584;SDS011;18191;51.288;12.390;2023-06-22T13:36:20;13.50;;;7.88;;
31584;SDS011;18191;51.288;12.390;2023-06-22T13:41:13;16.80;;;8.18;;
31584;SDS011;18191;51.288;12.390;2023-06-22T13:46:03;13.82;;;7.78;;
31584;SDS011;18191;51.288;12.390;2023-06-22T13:50:53;11.03;;;6.93;;
31584;SDS011;18191;51.288;12.390;2023-06-22T13:55:44;12.93;;;6.78;;
31584;SDS011;18191;51.288;12.390;2023-06-22T14:00:34;15.85;;;7.60;;
31584;SDS011;18191;51.288;12.390;2023-06-22T14:05:24;12.25;;;7.68;;
31584;SDS011;18191;51.288;12.390;2023-06-22T14:10:15;14.50;;;7.18;;
31584;SDS011;18191;51.288;12.390;2023-06-22T14:15:05;16.35;;;7.18;;
31584;SDS011;18191;51.288;12.390;2023-06-22T14:19:56;10.18;;;7.05;;
31584;SDS011;18191;51.288;12.390;2023-06-22T14:24:47;18.13;;;7.47;;
31584;SDS011;18191;51.288;12.390;2023-06-22T14:29:38;16.05;;;7.88;;
31584;SDS011;18191;51.288;12.390;2023-06-22T14:34:28;9.63;;;7.10;;
31584;SDS011;18191;51.288;12.390;2023-06-22T14:39:18;14.38;;;8.55;;
31584;SDS011;18191;51.288;12.390;2023-06-22T14:44:10;14.07;;;7.40;;
31584;SDS011;18191;51.288;12.390;2023-06-22T14:49:00;11.23;;;7.60;;
31584;SDS011;18191;51.288;12.390;2023-06-22T14:53:51;15.95;;;7.55;;
31584;SDS011;18191;51.288;12.390;2023-06-22T14:58:41;15.88;;;8.00;;
31584;SDS011;18191;51.288;12.390;2023-06-22T15:03:35;12.75;;;8.23;;
31584;SDS011;18191;51.288;12.390;2023-06-22T15:08:25;13.57;;;7.90;;
31584;SDS011;18191;51.288;12.390;2023-06-22T15:13:16;10.10;;;6.93;;
31584;SDS011;18191;51.288;12.390;2023-06-22T15:18:07;15.98;;;8.40;;
31584;SDS011;18191;51.288;12.390;2023-06-22T15:22:57;11.77;;;7.97;;
31584;SDS011;18191;51.288;12.390;2023-06-22T15:27:48;12.52;;;6.88;;
31584;SDS011;18191;51.288;12.390;2023-06-22T15:32:38;13.02;;;7.88;;
31584;SDS011;18191;51.288;12.390;2023-06-22T15:37:33;13.75;;;8.27;;
31584;SDS011;18191;51.288;12.390;2023-06-22T15:42:23;11.88;;;8.07;;
31584;SDS011;18191;51.288;12.390;2023-06-22T15:47:14;11.57;;;7.85;;
31584;SDS011;18191;51.288;12.390;2023-06-22T15:52:04;13.43;;;9.20;;
31584;SDS011;18191;51.288;12.390;2023-06-22T15:56:54;18.48;;;7.28;;
31584;SDS011;18191;51.288;12.390;2023-06-22T16:01:45;13.77;;;7.38;;
31584;SDS011;18191;51.288;12.390;2023-06-22T16:06:35;18.07;;;6.93;;
31584;SDS011;18191;51.288;12.390;2023-06-22T16:11:26;13.77;;;8.18;;
31584;SDS011;18191;51.288;12.390;2023-06-22T16:16:16;16.03;;;7.57;;
31584;SDS011;18191;51.288;12.390;2023-06-22T16:21:06;11.43;;;8.13;;
31584;SDS011;18191;51.288;12.390;2023-06-22T16:25:56;22.63;;;7.57;;
31584;SDS011;18191;51.288;12.390;2023-06-22T16:30:47;11.25;;;7.15;;
31584;SDS011;18191;51.288;12.390;2023-06-22T16:35:37;16.15;;;7.82;;
31584;SDS011;18191;51.288;12.390;2023-06-22T16:40:29;15.73;;;8.00;;
31584;SDS011;18191;51.288;12.390;2023-06-22T16:45:20;14.00;;;7.78;;
31584;SDS011;18191;51.288;12.390;2023-06-22T16:50:11;13.90;;;7.65;;
31584;SDS011;18191;51.288;12.390;2023-06-22T16:55:01;42.90;;;7.60;;
31584;SDS011;18191;51.288;12.390;2023-06-22T16:59:52;15.37;;;7.43;;
31584;SDS011;18191;51.288;12.390;2023-06-22T17:04:43;11.77;;;7.30;;
31584;SDS011;18191;51.288;12.390;2023-06-22T17:09:35;13.30;;;7.00;;
31584;SDS011;18191;51.288;12.390;2023-06-22T17:14:27;13.85;;;7.13;;
31584;SDS011;18191;51.288;12.390;2023-06-22T17:19:17;22.52;;;7.68;;
31584;SDS011;18191;51.288;12.390;2023-06-22T17:24:08;10.23;;;7.50;;
31584;SDS011;18191;51.288;12.390;2023-06-22T17:29:01;14.70;;;7.55;;
31584;SDS011;18191;51.288;12.390;2023-06-22T17:33:51;18.02;;;7.53;;
31584;SDS011;18191;51.288;12.390;2023-06-22T17:38:41;13.03;;;7.57;;
31584;SDS011;18191;51.288;12.390;2023-06-22T17:43:32;16.23;;;7.63;;
31584;SDS011;18191;51.288;12.390;2023-06-22T17:48:22;14.15;;;8.50;;
31584;SDS011;18191;51.288;12.390;2023-06-22T17:53:13;15.63;;;7.22;;
31584;SDS011;18191;51.288;12.390;2023-06-22T17:58:04;16.13;;;8.17;;
31584;SDS011;18191;51.288;12.390;2023-06-22T18:02:54;13.70;;;8.05;;
31584;SDS011;18191;51.288;12.390;2023-06-22T18:07:45;17.75;;;8.60;;
31584;SDS011;18191;51.288;12.390;2023-06-22T18:12:38;23.85;;;8.07;;
31584;SDS011;18191;51.288;12.390;2023-06-22T18:17:28;14.38;;;7.65;;
31584;SDS011;18191;51.288;12.390;2023-06-22T18:22:19;11.63;;;7.05;;
31584;SDS011;18191;51.288;12.390;2023-06-22T18:27:10;19.83;;;7.70;;
31584;SDS011;18191;51.288;12.390;2023-06-22T18:32:01;17.52;;;7.82;;
31584;SDS011;18191;51.288;12.390;2023-06-22T18:36:52;15.53;;;7.87;;
31584;SDS011;18191;51.288;12.390;2023-06-22T18:41:49;13.07;;;8.18;;
31584;SDS011;18191;51.288;12.390;2023-06-22T18:46:58;15.48;;;8.45;;
31584;SDS011;18191;51.288;12.390;2023-06-22T18:51:56;14.18;;;8.35;;
31584;SDS011;18191;51.288;12.390;2023-06-22T18:56:54;18.90;;;8.43;;
31584;SDS011;18191;51.288;12.390;2023-06-22T19:01:45;14.40;;;7.88;;
31584;SDS011;18191;51.288;12.390;2023-06-22T19:11:40;18.58;;;8.38;;
31584;SDS011;18191;51.288;12.390;2023-06-22T19:16:32;13.60;;;9.07;;
31584;SDS011;18191;51.288;12.390;2023-06-22T19:21:23;13.60;;;8.63;;
31584;SDS011;18191;51.288;12.390;2023-06-22T19:26:14;16.92;;;8.55;;
31584;SDS011;18191;51.288;12.390;2023-06-22T19:31:05;18.45;;;9.32;;
31584;SDS011;18191;51.288;12.390;2023-06-22T19:35:56;14.85;;;8.15;;
31584;SDS011;18191;51.288;12.390;2023-06-22T19:40:49;16.65;;;9.25;;
31584;SDS011;18191;51.288;12.390;2023-06-22T19:45:40;17.27;;;9.32;;
31584;SDS011;18191;51.288;12.390;2023-06-22T19:50:34;16.95;;;9.60;;
31584;SDS011;18191;51.288;12.390;2023-06-22T19:55:29;18.10;;;9.60;;
31584;SDS011;18191;51.288;12.390;2023-06-22T20:00:21;23.88;;;10.10;;
31584;SDS011;18191;51.288;12.390;2023-06-22T20:05:14;19.08;;;10.30;;
31584;SDS011;18191;51.288;12.390;2023-06-22T20:10:09;18.20;;;10.23;;
31584;SDS011;18191;51.288;12.390;2023-06-22T20:20:23;18.90;;;11.40;;
31584;SDS011;18191;51.288;12.390;2023-06-22T20:25:21;19.13;;;10.48;;
31584;SDS011;18191;51.288;12.390;2023-06-22T20:30:13;20.02;;;10.38;;
31584;SDS011;18191;51.288;12.390;2023-06-22T20:35:04;19.30;;;9.90;;
31584;SDS011;18191;51.288;12.390;2023-06-22T20:39:55;55.03;;;8.18;;
31584;SDS011;18191;51.288;12.390;2023-06-22T20:44:45;13.93;;;3.85;;
31584;SDS011;18191;51.288;12.390;2023-06-22T20:49:39;8.30;;;2.40;;
31584;SDS011;18191;51.288;12.390;2023-06-22T20:54:29;6.88;;;2.00;;
31584;SDS011;18191;51.288;12.390;2023-06-22T20:59:23;8.80;;;3.08;;
31584;SDS011;18191;51.288;12.390;2023-06-22T21:04:14;7.47;;;2.00;;
31584;SDS011;18191;51.288;12.390;2023-06-22T21:09:04;7.22;;;1.92;;
31584;SDS011;18191;51.288;12.390;2023-06-22T21:13:54;5.05;;;2.10;;
31584;SDS011;18191;51.288;12.390;2023-06-22T21:18:44;3.55;;;1.48;;
31584;SDS011;18191;51.288;12.390;2023-06-22T21:23:35;8.30;;;2.03;;
31584;SDS011;18191;51.288;12.390;2023-06-22T21:28:25;5.30;;;2.03;;
31584;SDS011;18191;51.288;12.390;2023-06-22T21:33:15;6.80;;;1.90;;
31584;SDS011;18191;51.288;12.390;2023-06-22T21:38:05;2.15;;;1.65;;
31584;SDS011;18191;51.288;12.390;2023-06-22T21:42:56;12.85;;;2.17;;
31584;SDS011;18191;51.288;12.390;2023-06-22T21:47:47;7.25;;;0.73;;
31584;SDS011;18191;51.288;12.390;2023-06-22T21:52:37;1.67;;;0.90;;
31584;SDS011;18191;51.288;12.390;2023-06-22T21:57:27;3.33;;;1.13;;
31584;SDS011;18191;51.288;12.390;2023-06-22T22:02:18;6.68;;;1.50;;
31584;SDS011;18191;51.288;12.390;2023-06-22T22:07:08;1.60;;;1.25;;
31584;SDS011;18191;51.288;12.390;2023-06-22T22:12:00;2.53;;;1.30;;
31584;SDS011;18191;51.288;12.390;2023-06-22T22:16:50;3.60;;;1.07;;
31584;SDS011;18191;51.288;12.390;2023-06-22T22:21:40;3.35;;;0.95;;
31584;SDS011;18191;51.288;12.390;2023-06-22T22:26:30;5.00;;;1.02;;
31584;SDS011;18191;51.288;12.390;2023-06-22T22:31:21;2.53;;;1.20;;
31584;SDS011;18191;51.288;12.390;2023-06-22T22:36:11;2.25;;;1.15;;
31584;SDS011;18191;51.288;12.390;2023-06-22T22:41:02;4.43;;;1.08;;
31584;SDS011;18191;51.288;12.390;2023-06-22T22:45:53;1.13;;;0.75;;
31584;SDS011;18191;51.288;12.390;2023-06-22T22:50:43;2.13;;;1.17;;
31584;SDS011;18191;51.288;12.390;2023-06-22T22:55:34;10.68;;;1.23;;
31584;SDS011;18191;51.288;12.390;2023-06-22T23:00:25;4.82;;;1.27;;
31584;SDS011;18191;51.288;12.390;2023-06-22T23:05:15;4.72;;;1.10;;
31584;SDS011;18191;51.288;12.390;2023-06-22T23:10:06;1.95;;;1.17;;
31584;SDS011;18191;51.288;12.390;2023-06-22T23:14:56;3.97;;;1.40;;
31584;SDS011;18191;51.288;12.390;2023-06-22T23:19:47;2.72;;;1.50;;
31584;SDS011;18191;51.288;12.390;2023-06-22T23:24:39;7.57;;;1.33;;
31584;SDS011;18191;51.288;12.390;2023-06-22T23:29:29;4.30;;;1.52;;
31584;SDS011;18191;51.288;12.390;2023-06-22T23:34:22;3.33;;;1.10;;
31584;SDS011;18191;51.288;12.390;2023-06-22T23:39:13;4.75;;;1.60;;
31584;SDS011;18191;51.288;12.390;2023-06-22T23:44:03;4.38;;;1.10;;
31584;SDS011;18191;51.288;12.390;2023-06-22T23:48:54;26.75;;;1.90;;
31584;SDS011;18191;51.288;12.390;2023-06-22T23:53:44;8.82;;;2.17;;
31584;SDS011;18191;51.288;12.390;2023-06-22T23:58:34;5.45;;;1.17;;
